createdAt,value
2019-01-17T00:03:16.363Z,69.32
2019-01-17T00:06:56.904Z,70.75
2019-01-17T00:10:16.419Z,71.47
2019-01-17T00:13:43.033Z,72.02
2019-01-17T00:17:08.820Z,71.72
2019-01-17T00:20:33.615Z,71.80
2019-01-17T00:23:49.824Z,71.44
2019-01-17T00:27:14.224Z,71.80
2019-01-17T00:30:40.402Z,70.66
2019-01-17T00:33:55.874Z,71.61
2019-01-17T00:37:14.337Z,70.37
2019-01-17T00:40:31.741Z,71.79
2019-01-17T00:43:56.150Z,72.15
2019-01-17T00:47:28.735Z,72.08
2019-01-17T00:50:57.588Z,72.71
2019-01-17T00:54:41.926Z,72.97
2019-01-17T00:58:22.577Z,73.53
2019-01-17T01:01:47.524Z,74.56
2019-01-17T01:05:13.164Z,74.95
2019-01-17T01:08:39.955Z,75.28
2019-01-17T01:12:05.316Z,75.93
2019-01-17T01:15:49.997Z,75.88
2019-01-17T01:19:11.104Z,76.42
2019-01-17T01:22:52.384Z,76.58
2019-01-17T01:26:21.208Z,76.21
2019-01-17T01:29:53.225Z,76.64
2019-01-17T01:33:37.059Z,76.63
2019-01-17T01:37:08.968Z,77.24
2019-01-17T01:40:29.066Z,77.14
2019-01-17T01:43:54.865Z,77.10
2019-01-17T01:47:13.800Z,76.69
2019-01-17T01:50:42.801Z,77.81
2019-01-17T01:53:49.676Z,77.06
2019-01-17T01:56:56.599Z,77.19
2019-01-17T02:00:03.503Z,76.56
2019-01-17T02:03:11.511Z,76.29
2019-01-17T02:06:23.118Z,76.98
2019-01-17T02:09:30.027Z,75.97
2019-01-17T02:12:36.998Z,76.32
2019-01-17T02:15:44.732Z,75.77
2019-01-17T02:18:51.990Z,76.03
2019-01-17T02:21:58.953Z,75.05
2019-01-17T02:25:06.140Z,75.83
2019-01-17T02:28:13.700Z,76.22
2019-01-17T02:31:20.851Z,75.71
2019-01-17T02:34:27.771Z,76.25
2019-01-17T02:37:34.664Z,76.05
2019-01-17T02:40:41.586Z,76.85
2019-01-17T02:43:48.607Z,76.20
2019-01-17T02:46:55.540Z,76.70
2019-01-17T02:50:02.423Z,76.36
2019-01-17T02:53:09.346Z,76.67
2019-01-17T02:56:16.656Z,76.59
2019-01-17T02:59:23.681Z,76.46
2019-01-17T03:02:31.161Z,76.62
2019-01-17T03:05:39.924Z,77.12
2019-01-17T03:08:46.816Z,77.10
2019-01-17T03:11:53.837Z,77.71
2019-01-17T03:15:00.730Z,77.38
2019-01-17T03:18:07.642Z,77.15
2019-01-17T03:21:15.052Z,77.63
2019-01-17T03:24:21.967Z,77.55
2019-01-17T03:27:28.852Z,77.88
2019-01-17T03:30:36.770Z,78.41
2019-01-17T03:33:43.683Z,78.02
2019-01-17T03:36:50.586Z,78.13
2019-01-17T03:39:57.482Z,78.22
2019-01-17T03:43:04.404Z,78.48
2019-01-17T03:46:11.345Z,78.55
2019-01-17T03:49:19.449Z,79.17
2019-01-17T03:52:26.383Z,78.52
2019-01-17T03:55:33.412Z,78.62
2019-01-17T03:58:40.331Z,78.75
2019-01-17T04:01:47.354Z,78.48
2019-01-17T04:04:54.253Z,79.27
2019-01-17T04:08:01.538Z,79.10
2019-01-17T04:11:08.491Z,79.16
2019-01-17T04:14:18.099Z,79.09
2019-01-17T04:17:25.070Z,79.39
2019-01-17T04:20:32.001Z,79.36
2019-01-17T04:23:38.884Z,79.83
2019-01-17T04:26:45.813Z,79.65
2019-01-17T04:29:52.693Z,79.79
2019-01-17T04:32:59.616Z,79.60
2019-01-17T04:36:06.515Z,80.34
2019-01-17T04:39:13.645Z,80.60
2019-01-17T04:42:20.521Z,80.31
2019-01-17T04:45:27.441Z,80.13
2019-01-17T04:48:34.348Z,79.65
2019-01-17T04:51:41.331Z,79.16
2019-01-17T04:54:48.212Z,78.82
2019-01-17T04:57:55.135Z,79.86
2019-01-17T05:01:02.153Z,79.54
2019-01-17T05:04:09.285Z,79.25
2019-01-17T05:07:24.075Z,79.75
2019-01-17T05:10:34.247Z,79.79
2019-01-17T05:13:41.267Z,80.14
2019-01-17T05:16:48.285Z,80.12
2019-01-17T05:19:55.168Z,81.52
2019-01-17T05:23:02.353Z,80.22
2019-01-17T05:26:09.238Z,80.58
2019-01-17T05:29:16.331Z,80.30
2019-01-17T05:32:23.209Z,80.76
2019-01-17T05:35:30.161Z,80.98
2019-01-17T05:38:37.118Z,81.00
2019-01-17T05:41:44.043Z,81.59
2019-01-17T05:44:51.134Z,81.36
2019-01-17T05:47:59.667Z,81.41
2019-01-17T05:51:06.539Z,81.91
2019-01-17T05:54:16.225Z,82.04
2019-01-17T05:57:23.204Z,82.81
2019-01-17T06:00:30.158Z,82.87
2019-01-17T06:03:37.030Z,83.29
2019-01-17T06:06:43.966Z,83.44
2019-01-17T06:09:51.988Z,83.40
2019-01-17T06:12:59.430Z,83.41
2019-01-17T06:16:06.684Z,83.87
2019-01-17T06:19:14.066Z,84.39
2019-01-17T06:22:20.982Z,84.53
2019-01-17T06:25:28.413Z,84.14
2019-01-17T06:28:35.564Z,84.16
2019-01-17T06:31:42.536Z,84.76
2019-01-17T06:34:49.500Z,84.85
2019-01-17T06:37:56.499Z,84.90
2019-01-17T06:41:03.371Z,84.92
2019-01-17T06:44:13.654Z,85.55
2019-01-17T06:47:20.707Z,85.34
2019-01-17T06:50:27.657Z,85.31
2019-01-17T06:53:34.559Z,85.42
2019-01-17T06:56:41.483Z,85.35
2019-01-17T06:59:48.358Z,85.49
2019-01-17T07:02:55.314Z,85.89
2019-01-17T07:06:02.239Z,85.91
2019-01-17T07:09:10.249Z,85.75
2019-01-17T07:12:17.343Z,85.88
2019-01-17T07:15:24.625Z,86.28
2019-01-17T07:18:31.508Z,86.38
2019-01-17T07:21:38.468Z,86.51
2019-01-17T07:24:45.397Z,86.39
2019-01-17T07:27:52.335Z,86.37
2019-01-17T07:30:59.337Z,86.77
2019-01-17T07:34:06.862Z,86.87
2019-01-17T07:37:13.762Z,86.86
2019-01-17T07:40:20.680Z,87.25
2019-01-17T07:43:27.652Z,86.82
2019-01-17T07:46:34.573Z,87.34
2019-01-17T07:49:41.441Z,87.28
2019-01-17T07:52:48.891Z,87.80
2019-01-17T07:55:55.817Z,87.46
2019-01-17T07:59:03.217Z,87.51
2019-01-17T08:02:10.348Z,87.23
2019-01-17T08:05:17.445Z,87.66
2019-01-17T08:08:24.499Z,87.52
2019-01-17T08:11:31.416Z,87.40
2019-01-17T08:14:38.328Z,87.81
2019-01-17T08:17:45.757Z,87.95
2019-01-17T08:20:53.602Z,88.53
2019-01-17T08:24:00.522Z,88.55
2019-01-17T08:27:07.684Z,88.81
2019-01-17T08:30:18.055Z,89.26
2019-01-17T08:33:25.052Z,89.25
2019-01-17T08:36:32.015Z,89.64
2019-01-17T08:39:39.007Z,89.71
2019-01-17T08:42:46.038Z,89.79
2019-01-17T08:45:52.925Z,89.69
2019-01-17T08:48:59.835Z,90.29
2019-01-17T08:52:09.853Z,90.15
2019-01-17T08:55:17.070Z,90.38
2019-01-17T08:58:23.965Z,90.52
2019-01-17T09:01:30.891Z,90.47
2019-01-17T09:04:37.766Z,89.93
2019-01-17T09:07:44.804Z,89.76
2019-01-17T09:10:51.688Z,90.29
2019-01-17T09:13:58.620Z,90.12
2019-01-17T09:17:05.862Z,90.19
2019-01-17T09:20:14.827Z,90.56
2019-01-17T09:23:21.719Z,90.93
2019-01-17T09:26:31.170Z,91.18
2019-01-17T09:29:38.060Z,91.18
2019-01-17T09:32:45.037Z,90.86
2019-01-17T09:35:51.905Z,91.22
2019-01-17T09:38:58.835Z,91.48
2019-01-17T09:42:08.139Z,91.82
2019-01-17T09:45:15.678Z,91.77
2019-01-17T09:48:22.571Z,91.89
2019-01-17T09:51:29.538Z,91.48
2019-01-17T09:54:36.671Z,91.50
2019-01-17T09:57:44.650Z,91.49
2019-01-17T10:00:51.540Z,91.70
2019-01-17T10:03:58.613Z,91.07
2019-01-17T10:07:06.297Z,90.94
2019-01-17T10:10:16.271Z,91.18
2019-01-17T10:13:23.138Z,90.46
2019-01-17T10:16:45.457Z,90.96
2019-01-17T10:20:49.151Z,90.56
2019-01-17T10:24:47.698Z,90.70
2019-01-17T10:29:05.693Z,89.81
2019-01-17T10:32:47.462Z,89.78
2019-01-17T10:36:22.144Z,88.90
2019-01-17T10:40:49.522Z,88.05
2019-01-17T10:44:57.187Z,88.57
2019-01-17T10:49:09.945Z,88.25
2019-01-17T10:53:13.100Z,87.46
2019-01-17T10:57:20.058Z,88.06
2019-01-17T11:01:35.421Z,87.69
2019-01-17T11:05:32.809Z,87.58
2019-01-17T11:09:14.359Z,87.18
2019-01-17T11:13:00.745Z,87.86
2019-01-17T11:17:22.198Z,87.86
2019-01-17T11:21:31.484Z,87.18
2019-01-17T11:25:44.207Z,87.84
2019-01-17T11:29:44.398Z,87.62
2019-01-17T11:33:34.538Z,87.41
2019-01-17T11:37:48.400Z,87.44
2019-01-17T11:41:42.071Z,87.67
2019-01-17T11:45:36.736Z,87.41
2019-01-17T11:49:31.175Z,87.75
2019-01-17T11:53:41.293Z,87.63
2019-01-17T11:57:51.431Z,87.69
2019-01-17T12:01:34.940Z,87.80
2019-01-17T12:04:42.766Z,87.45
2019-01-17T12:07:49.740Z,87.44
2019-01-17T12:10:56.618Z,87.20
2019-01-17T12:14:03.913Z,87.33
2019-01-17T12:17:11.162Z,87.40
2019-01-17T12:20:18.079Z,87.06
2019-01-17T12:23:26.941Z,87.53
2019-01-17T12:26:33.985Z,87.73
2019-01-17T12:29:40.954Z,87.77
2019-01-17T12:32:47.855Z,88.25
2019-01-17T12:35:54.742Z,87.76
2019-01-17T12:39:02.922Z,87.67
2019-01-17T12:42:09.888Z,87.80
2019-01-17T12:45:16.812Z,87.44
2019-01-17T12:48:23.691Z,87.44
2019-01-17T12:51:30.591Z,87.62
2019-01-17T12:54:37.474Z,87.48
2019-01-17T12:57:44.460Z,87.59
2019-01-17T13:00:51.452Z,87.84
2019-01-17T13:03:58.375Z,88.46
2019-01-17T13:07:07.948Z,87.15
2019-01-17T13:10:16.389Z,87.72
2019-01-17T13:13:23.732Z,86.75
2019-01-17T13:16:30.790Z,87.25
2019-01-17T13:19:37.673Z,87.34
2019-01-17T13:22:44.629Z,86.92
2019-01-17T13:25:52.647Z,86.92
2019-01-17T13:28:59.573Z,86.10
2019-01-17T13:32:07.976Z,86.03
2019-01-17T13:35:15.549Z,85.49
2019-01-17T13:38:22.502Z,85.62
2019-01-17T13:41:29.432Z,84.61
2019-01-17T13:44:36.389Z,84.01
2019-01-17T13:47:43.317Z,84.75
2019-01-17T13:50:50.312Z,84.84
2019-01-17T13:53:57.236Z,85.08
2019-01-17T13:57:07.650Z,85.38
2019-01-17T14:00:20.156Z,85.68
2019-01-17T14:03:27.086Z,86.27
2019-01-17T14:06:34.002Z,86.03
2019-01-17T14:09:41.069Z,85.37
2019-01-17T14:12:47.971Z,86.24
2019-01-17T14:15:54.843Z,86.57
2019-01-17T14:19:02.147Z,86.04
2019-01-17T14:22:09.603Z,85.71
2019-01-17T14:25:16.598Z,85.71
2019-01-17T14:28:23.790Z,84.92
2019-01-17T14:31:30.737Z,85.47
2019-01-17T14:34:37.617Z,84.24
2019-01-17T14:37:44.547Z,83.90
2019-01-17T14:40:51.527Z,83.16
2019-01-17T14:43:58.463Z,84.67
2019-01-17T14:47:05.798Z,83.64
2019-01-17T14:50:17.629Z,84.07
2019-01-17T14:53:24.502Z,83.75
2019-01-17T14:56:31.495Z,84.11
2019-01-17T14:59:38.459Z,84.06
2019-01-17T15:02:45.427Z,83.77
2019-01-17T15:05:52.403Z,83.42
2019-01-17T15:08:59.393Z,83.76
2019-01-17T15:12:06.321Z,83.92
2019-01-17T15:15:13.337Z,83.97
2019-01-17T15:18:20.254Z,83.86
2019-01-17T15:21:27.198Z,83.42
2019-01-17T15:24:34.102Z,84.14
2019-01-17T15:27:41.127Z,83.19
2019-01-17T15:30:48.416Z,83.20
2019-01-17T15:33:55.347Z,82.73
2019-01-17T15:37:02.321Z,81.70
2019-01-17T15:40:14.515Z,81.94
2019-01-17T15:43:21.547Z,81.67
2019-01-17T15:46:28.462Z,82.63
2019-01-17T15:49:35.339Z,83.27
2019-01-17T15:52:42.637Z,82.56
2019-01-17T15:55:50.471Z,82.90
2019-01-17T15:58:57.821Z,82.90
2019-01-17T16:02:05.167Z,84.08
2019-01-17T16:05:12.116Z,83.89
2019-01-17T16:08:19.061Z,84.16
2019-01-17T16:11:26.031Z,84.42
2019-01-17T16:14:32.900Z,84.84
2019-01-17T16:17:39.822Z,85.28
2019-01-17T16:20:46.695Z,85.40
2019-01-17T16:23:53.677Z,86.13
2019-01-17T16:27:01.005Z,85.10
2019-01-17T16:30:16.633Z,85.15
2019-01-17T16:33:23.774Z,85.63
2019-01-17T16:36:31.912Z,85.34
2019-01-17T16:39:41.162Z,85.07
2019-01-17T16:42:48.090Z,84.87
2019-01-17T16:45:55.106Z,83.81
2019-01-17T16:49:02.292Z,85.27
2019-01-17T16:52:09.187Z,84.88
2019-01-17T16:55:16.572Z,84.74
2019-01-17T16:58:23.447Z,84.59
2019-01-17T17:01:30.354Z,84.67
2019-01-17T17:04:37.246Z,84.79
2019-01-17T17:07:44.175Z,84.71
2019-01-17T17:10:51.325Z,86.49
2019-01-17T17:14:00.893Z,87.51
2019-01-17T17:17:07.861Z,87.22
2019-01-17T17:20:17.922Z,87.90
2019-01-17T17:23:24.812Z,88.79
2019-01-17T17:26:31.719Z,88.97
2019-01-17T17:29:38.608Z,89.40
2019-01-17T17:32:45.548Z,89.37
2019-01-17T17:35:52.832Z,89.11
2019-01-17T17:39:01.388Z,88.71
2019-01-17T17:42:09.873Z,89.08
2019-01-17T17:45:16.782Z,89.55
2019-01-17T17:48:24.391Z,90.05
2019-01-17T17:51:31.421Z,90.12
2019-01-17T17:54:38.323Z,90.12
2019-01-17T17:57:45.233Z,90.54
2019-01-17T18:01:06.389Z,90.08
2019-01-17T18:04:13.293Z,89.76
2019-01-17T18:07:20.170Z,89.64
2019-01-17T18:10:27.146Z,89.00
2019-01-17T18:13:34.038Z,89.03
2019-01-17T18:16:40.947Z,88.94
2019-01-17T18:19:47.969Z,88.87
2019-01-17T18:22:57.308Z,88.85
2019-01-17T18:26:04.891Z,88.35
2019-01-17T18:29:12.038Z,88.03
2019-01-17T18:32:19.007Z,87.68
2019-01-17T18:35:25.951Z,87.46
2019-01-17T18:38:33.234Z,87.81
2019-01-17T18:41:40.284Z,87.47
2019-01-17T18:44:47.201Z,87.67
2019-01-17T18:47:54.108Z,87.92
2019-01-17T18:51:04.130Z,88.34
2019-01-17T18:54:11.224Z,93.87
2019-01-17T18:57:19.084Z,97.62
2019-01-17T19:00:32.251Z,98.64
2019-01-17T19:03:39.296Z,99.28
2019-01-17T19:06:46.221Z,99.28
2019-01-17T19:09:53.295Z,99.26
2019-01-17T19:13:02.725Z,99.20
2019-01-17T19:16:09.666Z,98.89
2019-01-17T19:19:16.707Z,98.43
2019-01-17T19:22:23.654Z,97.63
2019-01-17T19:25:30.754Z,97.39
2019-01-17T19:28:37.667Z,97.53
2019-01-17T19:31:44.611Z,96.35
2019-01-17T19:34:51.590Z,96.14
2019-01-17T19:38:00.289Z,96.09
2019-01-17T19:41:07.652Z,96.29
2019-01-17T19:44:14.788Z,95.45
2019-01-17T19:47:21.727Z,95.61
2019-01-17T19:50:31.897Z,95.29
2019-01-17T19:53:38.789Z,93.78
2019-01-17T19:56:45.713Z,93.17
2019-01-17T19:59:52.592Z,93.56
2019-01-17T20:03:02.552Z,94.87
2019-01-17T20:06:09.540Z,94.24
2019-01-17T20:09:16.732Z,93.84
2019-01-17T20:12:23.590Z,93.19
2019-01-17T20:15:30.700Z,93.78
2019-01-17T20:18:37.952Z,92.92
2019-01-17T20:21:45.008Z,92.16
2019-01-17T20:24:51.925Z,92.94
2019-01-17T20:27:59.372Z,91.28
2019-01-17T20:31:06.244Z,91.72
2019-01-17T20:34:13.244Z,91.38
2019-01-17T20:37:20.141Z,91.56
2019-01-17T20:40:27.084Z,91.06
2019-01-17T20:43:35.548Z,91.77
2019-01-17T20:46:42.661Z,90.31
2019-01-17T20:49:49.551Z,91.10
2019-01-17T20:52:59.459Z,90.24
2019-01-17T20:56:06.348Z,90.17
2019-01-17T20:59:13.613Z,89.76
2019-01-17T21:02:22.031Z,90.87
2019-01-17T21:05:28.990Z,91.22
2019-01-17T21:08:37.107Z,91.68
2019-01-17T21:11:44.102Z,92.22
2019-01-17T21:14:51.186Z,92.11
2019-01-17T21:18:01.212Z,93.13
2019-01-17T21:21:08.108Z,92.22
2019-01-17T21:24:16.135Z,92.79
2019-01-17T21:27:23.012Z,92.33
2019-01-17T21:30:30.032Z,92.04
2019-01-17T21:33:36.968Z,91.98
2019-01-17T21:36:43.960Z,91.14
2019-01-17T21:39:50.832Z,91.73
2019-01-17T21:42:57.976Z,91.33
2019-01-17T21:46:05.266Z,90.93
2019-01-17T21:49:12.224Z,90.21
2019-01-17T21:52:19.162Z,89.81
2019-01-17T21:55:27.159Z,90.05
2019-01-17T21:58:34.121Z,89.25
2019-01-17T22:01:44.093Z,89.12
2019-01-17T22:04:51.008Z,87.77
2019-01-17T22:07:58.210Z,87.81
2019-01-17T22:11:05.094Z,87.76
2019-01-17T22:14:13.200Z,87.26
2019-01-17T22:17:20.102Z,86.54
2019-01-17T22:20:27.041Z,86.99
2019-01-17T22:23:33.909Z,87.92
2019-01-17T22:26:42.995Z,87.66
2019-01-17T22:29:49.980Z,89.01
2019-01-17T22:32:56.979Z,89.54
2019-01-17T22:36:04.013Z,90.17
2019-01-17T22:39:11.013Z,92.15
2019-01-17T22:42:18.009Z,93.54
2019-01-17T22:45:30.804Z,95.33
2019-01-17T22:48:38.051Z,96.00
2019-01-17T22:51:44.963Z,96.19
2019-01-17T22:54:51.833Z,96.71
2019-01-17T22:57:59.288Z,97.02
2019-01-17T23:01:22.439Z,97.61
2019-01-17T23:04:29.352Z,98.13
2019-01-17T23:07:37.359Z,97.59
2019-01-17T23:10:44.394Z,97.36
2019-01-17T23:13:51.354Z,97.08
2019-01-17T23:16:58.578Z,96.90
2019-01-17T23:20:06.304Z,96.17
2019-01-17T23:23:13.251Z,95.17
2019-01-17T23:26:20.141Z,95.36
2019-01-17T23:29:27.062Z,95.05
2019-01-17T23:32:33.928Z,94.31
2019-01-17T23:35:40.850Z,94.42
2019-01-17T23:38:47.908Z,93.50
2019-01-17T23:41:55.160Z,94.68
2019-01-17T23:45:02.381Z,93.44
2019-01-17T23:48:09.362Z,93.17
2019-01-17T23:51:17.410Z,92.94
2019-01-17T23:54:24.339Z,92.93
2019-01-17T23:57:31.231Z,93.09
